Time;durP1;ratioP1;P1;durP2;ratioP2;P2;SDS_P1;SDS_P2;PMS_P1;PMS_P2;Temp;Humidity;BMP_temperature;BMP_pressure;BME280_temperature;BME280_humidity;BME280_pressure;Samples;Min_cycle;Max_cycle;Signal;HPM_P1;HPM_P2
2023/03/28 00:01:40;;;;;;;3.88;1.25;;;;;;;2.14;98.72;100722.22;5070982;28;20037;-78
2023/03/28 00:04:10;;;;;;;2.45;0.95;;;;;;;2.07;98.77;100730.69;5067661;28;20459;-79
2023/03/28 00:06:40;;;;;;;4.97;0.70;;;;;;;2.06;99.24;100734.09;5069387;28;20089;-79
2023/03/28 00:09:06;;;;;;;2.80;0.88;;;;;;;2.03;99.62;100754.84;5070283;28;20041;-78
2023/03/28 00:11:32;;;;;;;3.15;0.70;;;;;;;2.13;99.12;100745.63;5068190;28;20058;-78
2023/03/28 00:13:59;;;;;;;4.32;1.33;;;;;;;2.24;99.29;100740.75;5065165;28;20088;-78
2023/03/28 00:16:32;;;;;;;5.72;1.10;;;;;;;2.36;98.78;100759.34;5068059;28;20067;-79
2023/03/28 00:18:59;;;;;;;3.10;0.90;;;;;;;2.37;99.33;100750.69;5070758;28;20035;-78
2023/03/28 00:21:31;;;;;;;6.45;1.08;;;;;;;2.28;100.00;100747.78;5068030;28;20033;-79
2023/03/28 00:24:01;;;;;;;9.77;0.90;;;;;;;2.27;100.00;100748.63;5064597;28;20041;-77
2023/03/28 00:26:31;;;;;;;2.97;0.73;;;;;;;2.32;100.00;100747.06;5061169;28;20490;-77
2023/03/28 00:28:56;;;;;;;7.40;1.65;;;;;;;2.33;99.37;100754.94;5063458;28;20451;-77
2023/03/28 00:31:24;;;;;;;7.75;1.50;;;;;;;2.33;99.99;100744.53;5061375;28;20112;-77
2023/03/28 00:33:50;;;;;;;4.25;1.50;;;;;;;2.36;99.03;100751.53;5063163;28;20116;-77
2023/03/28 00:36:25;;;;;;;2.67;0.95;;;;;;;2.35;99.24;100749.75;5063870;28;20566;-77
2023/03/28 00:39:09;;;;;;;8.40;1.77;;;;;;;2.45;98.24;100751.81;5048477;28;20037;-77
2023/03/28 00:41:39;;;;;;;8.77;1.58;;;;;;;2.46;97.85;100766.59;5062642;28;20044;-77
2023/03/28 00:44:55;;;;;;;5.00;1.00;;;;;;;2.48;97.80;100790.09;5052714;28;20395;-77
2023/03/28 00:47:26;;;;;;;6.53;1.00;;;;;;;2.56;97.26;100781.66;5012634;28;20068;-78
2023/03/28 00:50:02;;;;;;;7.15;2.05;;;;;;;2.58;96.98;100782.59;5067243;28;20105;-77
2023/03/28 00:52:31;;;;;;;8.63;1.80;;;;;;;2.58;95.64;100786.94;5058992;28;20037;-77
2023/03/28 00:54:58;;;;;;;12.23;2.50;;;;;;;2.57;95.39;100770.41;5061113;28;20395;-77
2023/03/28 00:57:25;;;;;;;7.30;1.88;;;;;;;2.59;95.37;100765.25;5063096;28;20059;-77
2023/03/28 00:59:51;;;;;;;7.68;1.77;;;;;;;2.61;94.73;100787.91;5059908;28;20087;-77
2023/03/28 01:02:17;;;;;;;3.08;0.85;;;;;;;2.58;93.68;100787.81;5044453;28;20479;-76
2023/03/28 01:04:53;;;;;;;7.68;1.63;;;;;;;2.59;94.22;100789.59;5067387;28;20020;-77
2023/03/28 01:07:21;;;;;;;3.00;1.10;;;;;;;2.58;95.34;100803.44;5045471;28;20443;-77
2023/03/28 01:09:47;;;;;;;9.40;1.38;;;;;;;2.44;97.19;100789.13;5062888;28;20108;-77
2023/03/28 01:12:15;;;;;;;7.82;2.00;;;;;;;2.38;97.89;100807.16;5062820;28;20028;-75
2023/03/28 01:14:42;;;;;;;6.00;1.30;;;;;;;2.38;98.29;100799.34;5041673;28;20029;-76
2023/03/28 01:17:09;;;;;;;4.57;0.85;;;;;;;2.43;99.14;100789.94;5041475;28;20036;-75
2023/03/28 01:19:57;;;;;;;9.38;1.83;;;;;;;2.41;100.00;100802.03;5035954;28;20044;-76
2023/03/28 01:22:53;;;;;;;6.13;1.23;;;;;;;2.42;100.00;100802.09;5044802;28;20043;-76
2023/03/28 01:25:37;;;;;;;6.78;1.35;;;;;;;2.38;100.00;100805.47;5063052;28;20115;-75
2023/03/28 01:28:25;;;;;;;7.43;1.30;;;;;;;2.32;100.00;100809.56;5060291;28;20032;-75
2023/03/28 01:31:29;;;;;;;11.70;2.00;;;;;;;2.17;100.00;100810.88;5060528;28;20495;-76
2023/03/28 01:34:35;;;;;;;7.13;1.20;;;;;;;2.07;100.00;100806.19;5064276;28;20376;-75
2023/03/28 01:37:18;;;;;;;8.35;2.30;;;;;;;2.01;100.00;100812.91;5047315;28;20045;-75
2023/03/28 01:39:56;;;;;;;6.35;1.50;;;;;;;1.95;100.00;100808.38;5042214;28;20516;-76
2023/03/28 01:42:52;;;;;;;10.07;2.13;;;;;;;1.98;100.00;100827.59;5048689;28;20120;-75
2023/03/28 01:45:44;;;;;;;7.72;1.55;;;;;;;2.03;100.00;100822.53;5060614;28;20037;-76
2023/03/28 01:48:22;;;;;;;8.57;2.15;;;;;;;2.08;100.00;100813.16;5042237;28;20069;-76
2023/03/28 01:51:07;;;;;;;11.82;2.63;;;;;;;2.16;100.00;100816.88;5062540;28;20064;-77
2023/03/28 01:53:48;;;;;;;5.18;1.55;;;;;;;2.18;100.00;100823.03;5057172;28;20422;-76
2023/03/28 01:56:25;;;;;;;8.98;1.80;;;;;;;2.24;100.00;100827.56;5052838;28;20131;-76
2023/03/28 01:58:56;;;;;;;9.88;2.63;;;;;;;2.18;100.00;100816.94;5042339;28;20056;-75
2023/03/28 02:01:44;;;;;;;5.13;1.90;;;;;;;2.25;100.00;100812.81;5028606;28;20529;-76
2023/03/28 02:04:16;;;;;;;4.72;1.13;;;;;;;2.30;100.00;100814.72;5049771;28;20020;-76
2023/03/28 02:06:53;;;;;;;5.03;1.23;;;;;;;2.36;100.00;100827.97;5048856;28;20033;-76
2023/03/28 02:09:26;;;;;;;6.82;1.48;;;;;;;2.38;100.00;100820.16;5048714;28;20048;-76
2023/03/28 02:12:18;;;;;;;6.32;1.30;;;;;;;2.38;100.00;100830.59;5048569;28;20036;-76
2023/03/28 02:15:25;;;;;;;6.30;1.20;;;;;;;2.37;100.00;100819.28;5005675;28;20042;-76
2023/03/28 02:18:25;;;;;;;6.70;1.90;;;;;;;2.37;100.00;100823.63;4987895;28;20081;-76
2023/03/28 02:21:01;;;;;;;5.30;1.17;;;;;;;2.37;100.00;100828.84;5045479;28;20194;-76
2023/03/28 02:23:51;;;;;;;10.63;1.52;;;;;;;2.33;99.86;100840.88;5048172;28;20056;-75
2023/03/28 02:26:39;;;;;;;8.05;1.70;;;;;;;2.27;100.00;100822.44;5048461;28;20029;-76
2023/03/28 02:29:27;;;;;;;5.97;1.10;;;;;;;2.26;100.00;100831.09;5047242;28;20047;-76
2023/03/28 02:31:57;;;;;;;6.47;1.63;;;;;;;2.21;100.00;100827.47;5053309;28;20125;-75
2023/03/28 02:34:24;;;;;;;7.35;1.65;;;;;;;2.12;100.00;100830.66;5062170;28;20133;-76
2023/03/28 02:37:09;;;;;;;6.03;1.88;;;;;;;2.13;100.00;100860.19;5048059;28;20533;-77
2023/03/28 02:39:52;;;;;;;7.90;1.02;;;;;;;2.07;100.00;100839.13;5075929;28;20032;-76
2023/03/28 02:42:46;;;;;;;3.85;0.82;;;;;;;2.06;100.00;100858.19;5047888;28;20565;-76
2023/03/28 02:45:27;;;;;;;;;;;;;;;2.02;100.00;100833.78;5052706;28;20068;-76
2023/03/28 02:48:19;;;;;;;7.25;1.08;;;;;;;1.95;100.00;100847.44;5052841;28;19917;-77
2023/03/28 02:51:03;;;;;;;5.85;0.98;;;;;;;2.01;100.00;100859.75;5046843;28;20044;-76
2023/03/28 02:53:43;;;;;;;10.52;1.15;;;;;;;2.03;100.00;100852.91;5030890;28;20123;-76
2023/03/28 02:56:18;;;;;;;5.28;0.80;;;;;;;2.00;100.00;100858.88;5044292;28;20032;-76
2023/03/28 02:59:26;;;;;;;4.82;1.10;;;;;;;2.01;100.00;100885.78;5041933;28;20047;-76
2023/03/28 03:01:52;;;;;;;6.47;0.88;;;;;;;1.99;100.00;100851.88;5062168;28;20487;-76
2023/03/28 03:04:17;;;;;;;4.18;1.17;;;;;;;2.00;100.00;100868.41;5065345;28;20036;-76
2023/03/28 03:06:44;;;;;;;3.92;1.00;;;;;;;1.95;100.00;100878.66;5046808;28;20116;-76
2023/03/28 03:09:11;;;;;;;3.90;0.93;;;;;;;2.00;100.00;100874.50;5062113;28;20028;-76
2023/03/28 03:11:37;;;;;;;2.90;0.80;;;;;;;2.00;100.00;100858.88;5053635;28;20067;-76
2023/03/28 03:14:03;;;;;;;6.80;1.42;;;;;;;1.97;100.00;100869.19;5052734;28;20064;-75
2023/03/28 03:16:29;;;;;;;3.85;0.82;;;;;;;1.93;100.00;100867.31;5047822;28;20110;-76
2023/03/28 03:18:56;;;;;;;5.18;1.25;;;;;;;1.94;100.00;100869.09;5054092;28;20037;-76
2023/03/28 03:21:22;;;;;;;8.07;0.80;;;;;;;1.87;100.00;100870.59;5047296;28;20688;-76
2023/03/28 03:23:49;;;;;;;4.70;1.88;;;;;;;1.86;100.00;100867.94;5044722;28;20032;-76
2023/03/28 03:26:15;;;;;;;6.15;1.42;;;;;;;1.80;100.00;100888.53;5045629;28;20028;-76
2023/03/28 03:28:50;;;;;;;3.60;2.25;;;;;;;1.82;100.00;100889.50;5046747;28;20035;-77
2023/03/28 03:31:18;;;;;;;4.75;0.80;;;;;;;1.82;100.00;100886.88;5051875;28;20037;-77
2023/03/28 03:34:06;;;;;;;2.97;0.75;;;;;;;1.72;100.00;100906.50;5053472;28;20068;-77
2023/03/28 03:36:39;;;;;;;7.00;1.80;;;;;;;1.56;100.00;100902.44;5046887;28;20033;-77
2023/03/28 03:39:05;;;;;;;6.30;0.93;;;;;;;1.48;100.00;100903.91;5047763;28;20059;-76
2023/03/28 03:41:30;;;;;;;5.97;0.68;;;;;;;1.48;100.00;100909.97;5064662;28;20399;-75
2023/03/28 03:43:56;;;;;;;5.03;0.75;;;;;;;1.52;100.00;100918.81;5050912;28;20470;-76
2023/03/28 03:46:21;;;;;;;2.88;0.65;;;;;;;1.53;100.00;100925.75;5051882;28;20524;-75
2023/03/28 03:48:48;;;;;;;1.98;0.47;;;;;;;1.59;100.00;100917.28;5053888;28;20040;-76
2023/03/28 03:51:14;;;;;;;5.95;0.70;;;;;;;1.60;100.00;100919.97;5064627;28;20038;-76
2023/03/28 03:53:39;;;;;;;3.40;1.27;;;;;;;1.59;100.00;100931.19;5043402;28;20143;-76
2023/03/28 03:56:09;;;;;;;3.65;0.80;;;;;;;1.64;100.00;100933.94;5045342;28;20036;-76
2023/03/28 03:58:50;;;;;;;3.05;0.70;;;;;;;1.66;100.00;100938.38;5054377;28;20040;-76
2023/03/28 04:01:15;;;;;;;5.35;1.00;;;;;;;1.68;100.00;100933.25;5054536;28;20033;-75
2023/03/28 04:03:41;;;;;;;4.10;0.75;;;;;;;1.69;100.00;100941.09;5060610;28;20054;-76
2023/03/28 04:06:08;;;;;;;4.80;0.88;;;;;;;1.67;100.00;100952.28;5047163;28;20438;-76
2023/03/28 04:08:35;;;;;;;1.60;0.43;;;;;;;1.65;100.00;100947.03;5046728;28;20045;-75
2023/03/28 04:11:02;;;;;;;5.97;0.68;;;;;;;1.66;100.00;100960.91;5053442;28;20387;-75
2023/03/28 04:13:34;;;;;;;;;;;;;;;1.73;100.00;100950.78;5044800;28;20033;-76
2023/03/28 04:16:02;;;;;;;1.98;0.40;;;;;;;1.83;100.00;100965.00;5053532;28;19912;-75
2023/03/28 04:18:49;;;;;;;4.13;0.55;;;;;;;1.77;100.00;100966.50;5054458;28;20090;-75
2023/03/28 04:21:19;;;;;;;6.03;0.70;;;;;;;1.75;100.00;100967.31;5054163;28;20029;-76
2023/03/28 04:23:47;;;;;;;5.28;0.90;;;;;;;1.74;100.00;100975.09;5046796;28;20048;-76
2023/03/28 04:26:34;;;;;;;5.18;1.10;;;;;;;1.73;100.00;100982.03;5065385;28;20143;-75
2023/03/28 04:29:04;;;;;;;8.48;1.40;;;;;;;1.68;100.00;100987.88;5049581;28;20025;-75
2023/03/28 04:31:34;;;;;;;9.15;0.95;;;;;;;1.59;100.00;100984.94;5049396;28;20051;-75
2023/03/28 04:34:37;;;;;;;5.35;0.60;;;;;;;1.60;100.00;101000.59;5059945;28;20048;-75
2023/03/28 04:37:09;;;;;;;6.07;0.70;;;;;;;1.53;100.00;101016.81;5047380;28;20119;-76
2023/03/28 04:39:54;;;;;;;4.07;0.45;;;;;;;1.47;100.00;101003.56;5051519;28;20071;-76
2023/03/28 04:42:25;;;;;;;6.47;0.60;;;;;;;1.43;100.00;101009.47;5062556;28;20069;-76
2023/03/28 04:45:19;;;;;;;3.17;0.70;;;;;;;1.39;100.00;101013.69;5045808;28;20090;-76
2023/03/28 04:47:47;;;;;;;3.08;0.50;;;;;;;1.41;100.00;101022.41;5049154;28;20055;-75
2023/03/28 04:50:15;;;;;;;2.70;0.77;;;;;;;1.39;100.00;101025.78;5051289;28;20055;-76
2023/03/28 04:52:41;;;;;;;1.73;0.47;;;;;;;1.41;100.00;101034.53;5049626;28;20024;-75
2023/03/28 04:55:07;;;;;;;5.63;1.00;;;;;;;1.37;100.00;101041.34;5066402;28;20032;-74
2023/03/28 04:57:33;;;;;;;4.55;0.88;;;;;;;1.43;100.00;101048.50;5070840;28;20036;-75
2023/03/28 05:00:11;;;;;;;3.13;0.68;;;;;;;1.38;100.00;101047.44;5057391;28;20105;-75
2023/03/28 05:02:56;;;;;;;6.15;1.02;;;;;;;1.27;100.00;101034.88;5064612;28;20506;-76
2023/03/28 05:05:22;;;;;;;7.20;1.95;;;;;;;1.25;100.00;101046.94;5047412;28;20116;-76
2023/03/28 05:07:47;;;;;;;3.67;0.55;;;;;;;1.21;100.00;101050.25;5035678;28;20186;-75
2023/03/28 05:10:16;;;;;;;2.65;0.70;;;;;;;1.21;100.00;101055.44;5052577;28;20035;-74
2023/03/28 05:12:42;;;;;;;1.88;0.30;;;;;;;1.19;100.00;101070.09;5040480;28;20515;-76
2023/03/28 05:15:08;;;;;;;2.10;0.30;;;;;;;1.18;100.00;101067.41;5044247;28;20124;-76
2023/03/28 05:17:47;;;;;;;4.35;0.60;;;;;;;1.14;100.00;101076.81;5058811;28;20060;-75
2023/03/28 05:20:26;;;;;;;1.85;0.47;;;;;;;1.17;100.00;101083.88;5048920;28;20064;-77
2023/03/28 05:22:54;;;;;;;0.65;0.35;;;;;;;1.21;100.00;101080.56;5045098;28;20089;-76
2023/03/28 05:25:20;;;;;;;1.00;0.45;;;;;;;1.20;100.00;101084.84;5042649;28;20032;-76
2023/03/28 05:27:47;;;;;;;1.35;0.30;;;;;;;1.19;100.00;101098.69;5046542;28;20057;-74
2023/03/28 05:30:13;;;;;;;5.43;0.90;;;;;;;1.23;100.00;101095.41;5066473;28;20115;-76
2023/03/28 05:32:38;;;;;;;7.50;1.33;;;;;;;1.22;100.00;101101.41;5059765;28;20037;-76
2023/03/28 05:35:10;;;;;;;1.77;0.68;;;;;;;1.31;100.00;101104.41;5045142;28;20035;-75
2023/03/28 05:37:38;;;;;;;4.47;0.73;;;;;;;1.38;100.00;101109.84;5043284;28;20141;-75
2023/03/28 05:40:09;;;;;;;1.55;0.30;;;;;;;1.43;100.00;101121.31;5060933;28;20539;-75
2023/03/28 05:42:37;;;;;;;;;;;;;;;1.39;100.00;101127.22;5045095;28;20397;-76
2023/03/28 05:45:11;;;;;;;6.88;1.00;;;;;;;1.36;100.00;101121.88;5040589;28;19955;-76
2023/03/28 05:47:59;;;;;;;4.97;0.90;;;;;;;1.33;100.00;101133.06;5053168;28;20048;-75
2023/03/28 05:50:25;;;;;;;3.80;0.77;;;;;;;1.40;100.00;101129.00;5049449;28;20025;-76
2023/03/28 05:52:55;;;;;;;4.40;1.48;;;;;;;1.44;100.00;101141.28;5043791;28;20043;-76
2023/03/28 05:55:21;;;;;;;4.75;1.05;;;;;;;1.48;100.00;101140.59;5044417;28;20036;-76
2023/03/28 05:57:47;;;;;;;3.97;0.95;;;;;;;1.43;100.00;101156.03;5043770;28;20040;-76
2023/03/28 06:00:15;;;;;;;3.58;0.65;;;;;;;1.41;100.00;101154.19;5042138;28;20398;-76
2023/03/28 06:02:50;;;;;;;3.58;0.85;;;;;;;1.40;100.00;101160.22;5041882;28;20040;-76
2023/03/28 06:05:21;;;;;;;2.17;0.70;;;;;;;1.33;100.00;101160.78;5046485;28;20032;-75
2023/03/28 06:07:46;;;;;;;2.28;0.70;;;;;;;1.24;100.00;101158.69;5049837;28;20040;-75
2023/03/28 06:10:14;;;;;;;6.43;1.15;;;;;;;1.19;99.41;101175.81;5057528;28;20550;-76
2023/03/28 06:12:49;;;;;;;2.78;0.80;;;;;;;1.11;100.00;101172.00;5036595;28;20043;-76
2023/03/28 06:15:15;;;;;;;3.72;0.93;;;;;;;1.07;100.00;101186.56;5050704;28;20037;-76
2023/03/28 06:17:44;;;;;;;3.60;0.80;;;;;;;1.07;97.83;101196.97;5050167;28;20037;-75
2023/03/28 06:20:10;;;;;;;3.97;1.10;;;;;;;1.15;97.90;101190.38;5043064;28;20502;-76
2023/03/28 06:22:36;;;;;;;5.13;1.25;;;;;;;1.28;97.53;101187.50;5062500;28;20052;-76
2023/03/28 06:25:05;;;;;;;1.95;0.77;;;;;;;1.43;96.16;101191.56;5041259;28;20033;-76
2023/03/28 06:27:32;;;;;;;17.27;1.17;;;;;;;1.59;95.60;101190.47;5044670;28;20112;-75
2023/03/28 06:29:59;;;;;;;1.60;0.70;;;;;;;1.77;95.23;101187.72;5040216;28;20035;-77
2023/03/28 06:32:25;;;;;;;7.38;2.15;;;;;;;1.89;92.29;101193.44;5048019;28;20029;-76
2023/03/28 06:34:51;;;;;;;3.88;1.02;;;;;;;2.01;90.48;101203.41;5044432;28;20486;-75
2023/03/28 06:37:17;;;;;;;3.17;0.85;;;;;;;2.03;88.84;101207.84;5042617;28;20064;-75
2023/03/28 06:40:09;;;;;;;2.28;0.80;;;;;;;2.12;87.87;101200.41;5062398;28;20120;-75
2023/03/28 06:42:34;;;;;;;2.33;1.08;;;;;;;2.10;85.92;101203.78;5064508;28;20119;-76
2023/03/28 06:45:14;;;;;;;3.15;0.82;;;;;;;2.10;85.35;101229.84;5044488;28;20036;-75
2023/03/28 06:47:51;;;;;;;2.85;1.05;;;;;;;2.18;86.02;101229.28;5052387;28;20119;-77
2023/03/28 06:50:22;;;;;;;6.00;0.50;;;;;;;2.31;84.36;101214.16;5044059;28;20481;-77
2023/03/28 06:52:52;;;;;;;4.00;0.70;;;;;;;2.37;83.40;101219.56;5068037;28;20040;-76
2023/03/28 06:55:17;;;;;;;2.83;1.02;;;;;;;2.25;83.11;101224.31;5054145;28;20029;-76
2023/03/28 06:57:43;;;;;;;4.53;0.90;;;;;;;2.22;82.27;101232.88;5063563;28;20033;-75
2023/03/28 07:00:30;;;;;;;4.05;1.08;;;;;;;2.30;81.65;101233.19;5051209;28;20068;-77
2023/03/28 07:03:13;;;;;;;4.15;0.98;;;;;;;2.62;80.75;101237.91;5056149;28;20191;-77
2023/03/28 07:05:40;;;;;;;1.95;0.93;;;;;;;2.89;80.61;101247.59;5044273;28;20581;-76
2023/03/28 07:08:07;;;;;;;8.50;0.77;;;;;;;3.08;78.66;101243.91;5047648;28;20074;-77
2023/03/28 07:10:34;;;;;;;4.35;1.15;;;;;;;3.18;76.39;101237.31;5049811;28;20071;-77
2023/03/28 07:12:59;;;;;;;3.58;0.95;;;;;;;3.13;74.83;101264.94;5053093;28;20044;-77
2023/03/28 07:15:24;;;;;;;4.50;1.65;;;;;;;3.22;80.55;101260.03;5044038;28;20399;-77
2023/03/28 07:17:52;;;;;;;4.15;0.90;;;;;;;3.17;80.83;101272.03;5052160;28;20059;-77
2023/03/28 07:20:17;;;;;;;3.85;0.63;;;;;;;3.15;80.12;101260.69;5051185;28;20024;-76
2023/03/28 07:22:43;;;;;;;3.75;0.77;;;;;;;3.16;81.10;101268.53;5052367;28;20036;-77
2023/03/28 07:25:08;;;;;;;1.92;0.80;;;;;;;3.07;81.26;101276.06;5054925;28;20059;-77
2023/03/28 07:27:34;;;;;;;3.10;0.90;;;;;;;3.02;80.97;101294.13;5045713;28;20051;-77
2023/03/28 07:30:00;;;;;;;3.92;0.65;;;;;;;2.96;81.57;101275.66;5066001;28;20487;-78
2023/03/28 07:32:27;;;;;;;3.85;1.05;;;;;;;2.95;80.76;101267.78;5051906;28;20058;-77
2023/03/28 07:34:52;;;;;;;2.38;0.88;;;;;;;2.92;81.28;101296.34;5056167;28;20129;-77
2023/03/28 07:37:22;;;;;;;4.45;0.75;;;;;;;2.73;80.74;101297.38;5054220;28;20513;-77
2023/03/28 07:40:09;;;;;;;2.22;0.50;;;;;;;2.50;79.11;101294.78;5053562;28;20033;-77
2023/03/28 07:42:36;;;;;;;4.57;0.77;;;;;;;2.62;81.09;101300.47;5051583;28;20036;-77
2023/03/28 07:45:01;;;;;;;1.88;0.60;;;;;;;2.63;78.44;101286.59;5055802;28;20028;-78
2023/03/28 07:47:29;;;;;;;2.00;0.70;;;;;;;2.75;79.67;101290.47;5052840;28;20033;-77
2023/03/28 07:49:54;;;;;;;4.38;1.23;;;;;;;2.83;75.51;101287.34;5041116;28;20032;-78
2023/03/28 07:52:20;;;;;;;4.60;0.93;;;;;;;2.83;73.21;101299.50;5055836;28;20043;-78
2023/03/28 07:54:46;;;;;;;2.42;0.63;;;;;;;2.92;72.81;101305.06;5065703;28;20060;-78
2023/03/28 07:57:11;;;;;;;1.02;0.60;;;;;;;3.13;73.81;101301.47;5054307;28;20077;-78
2023/03/28 07:59:56;;;;;;;3.83;0.80;;;;;;;3.41;73.04;101305.94;5058039;28;20047;-78
2023/03/28 08:02:22;;;;;;;1.08;0.30;;;;;;;3.46;69.46;101301.78;5058966;28;20099;-78
2023/03/28 08:04:48;;;;;;;1.17;0.55;;;;;;;3.59;68.85;101329.16;5057910;28;20104;-78
2023/03/28 08:07:19;;;;;;;4.32;0.80;;;;;;;3.47;67.47;101319.22;5058051;28;20029;-78
2023/03/28 08:09:46;;;;;;;1.30;0.45;;;;;;;3.31;63.37;101325.59;5052383;28;20087;-78
2023/03/28 08:12:20;;;;;;;3.42;0.70;;;;;;;3.42;66.79;101344.25;5051692;28;20043;-78
2023/03/28 08:14:46;;;;;;;0.95;0.40;;;;;;;3.48;67.86;101326.19;5056792;28;20039;-78
2023/03/28 08:17:12;;;;;;;2.03;0.40;;;;;;;3.56;68.62;101316.03;5059085;28;20052;-78
2023/03/28 08:19:37;;;;;;;4.70;0.60;;;;;;;3.60;67.65;101325.75;5058980;28;20033;-79
2023/03/28 08:22:09;;;;;;;0.90;0.50;;;;;;;3.55;67.66;101317.75;5069762;28;20107;-79
2023/03/28 08:24:42;;;;;;;1.40;0.63;;;;;;;3.63;67.24;101321.50;5052171;28;20029;-79
2023/03/28 08:27:13;;;;;;;5.65;0.82;;;;;;;3.56;66.81;101316.91;5061033;28;20067;-79
2023/03/28 08:29:41;;;;;;;1.33;0.55;;;;;;;3.66;64.48;101339.00;5062386;28;20036;-79
2023/03/28 08:32:07;;;;;;;3.30;0.60;;;;;;;3.65;61.74;101332.03;5050776;28;20037;-79
2023/03/28 08:34:34;;;;;;;1.75;0.55;;;;;;;3.76;62.99;101322.81;5058545;28;20039;-78
2023/03/28 08:37:05;;;;;;;4.13;0.70;;;;;;;3.82;63.79;101329.97;5056956;28;20028;-78
2023/03/28 08:39:32;;;;;;;0.55;0.30;;;;;;;3.86;64.75;101322.31;5078446;28;20546;-78
2023/03/28 08:42:26;;;;;;;3.65;0.77;;;;;;;3.86;63.53;101337.97;5059199;28;20032;-78
2023/03/28 08:45:07;;;;;;;4.93;1.13;;;;;;;3.73;60.27;101347.09;5070313;28;20032;-78
2023/03/28 08:47:51;;;;;;;3.17;0.50;;;;;;;3.73;60.75;101320.13;5075511;28;20033;-78
2023/03/28 08:50:28;;;;;;;2.20;0.47;;;;;;;4.03;60.67;101341.13;5062705;28;20037;-78
2023/03/28 08:52:54;;;;;;;4.45;0.40;;;;;;;4.19;61.89;101337.31;5051551;28;20025;-78
2023/03/28 08:55:31;;;;;;;1.90;0.57;;;;;;;4.40;61.36;101331.88;5062383;28;20045;-78
2023/03/28 08:57:58;;;;;;;0.45;0.38;;;;;;;4.54;61.27;101343.66;5061390;28;20036;-79
2023/03/28 09:00:30;;;;;;;2.20;0.38;;;;;;;4.18;56.72;101364.28;5038366;28;20033;-78
2023/03/28 09:02:55;;;;;;;3.20;1.05;;;;;;;4.05;57.61;101349.03;5052832;28;20087;-79
2023/03/28 09:05:30;;;;;;;1.15;0.45;;;;;;;4.22;55.66;101342.66;5071818;28;20040;-78
2023/03/28 09:08:42;;;;;;;1.38;0.50;;;;;;;4.41;54.61;101343.25;5061362;28;20044;-78
2023/03/28 09:11:23;;;;;;;1.33;0.38;;;;;;;4.69;54.09;101353.72;5076308;28;20082;-78
2023/03/28 09:14:01;;;;;;;3.40;0.50;;;;;;;4.45;52.56;101364.28;5064703;28;20036;-79
2023/03/28 09:16:49;;;;;;;0.22;0.10;;;;;;;4.27;51.71;101363.69;5061079;28;20507;-78
2023/03/28 09:19:32;;;;;;;0.93;0.30;;;;;;;4.55;52.16;101368.09;5072103;28;20035;-78
2023/03/28 09:22:27;;;;;;;0.35;0.10;;;;;;;4.99;49.04;101366.84;5041124;28;20033;-78
2023/03/28 09:25:20;;;;;;;0.47;0.10;;;;;;;5.12;46.03;101378.56;5055299;28;20025;-78
2023/03/28 09:27:55;;;;;;;0.00;0.00;;;;;;;5.17;43.58;101361.25;5037377;28;20040;-79
2023/03/28 09:30:26;;;;;;;0.45;0.30;;;;;;;4.69;44.97;101374.66;5055958;28;20037;-78
2023/03/28 09:32:57;;;;;;;7.50;1.27;;;;;;;4.54;47.47;101380.28;5052700;28;20056;-78
2023/03/28 09:35:24;;;;;;;3.60;0.20;;;;;;;4.59;45.21;101406.56;5073431;28;20037;-78
2023/03/28 09:37:59;;;;;;;1.10;0.40;;;;;;;4.50;47.09;101387.97;5072686;28;20029;-78
2023/03/28 09:40:27;;;;;;;0.47;0.10;;;;;;;4.81;47.73;101382.84;5070133;28;20107;-77
2023/03/28 09:43:39;;;;;;;0.90;0.13;;;;;;;5.12;44.78;101378.56;5063526;28;20121;-77
2023/03/28 09:46:32;;;;;;;0.75;0.25;;;;;;;5.36;41.81;101377.50;5058628;28;20123;-77
2023/03/28 09:49:21;;;;;;;0.65;0.10;;;;;;;5.55;42.66;101386.75;5048284;28;20037;-78
2023/03/28 09:51:54;;;;;;;1.70;0.30;;;;;;;5.56;44.54;101378.94;5044029;28;20047;-78
2023/03/28 09:54:27;;;;;;;2.13;0.40;;;;;;;5.40;46.95;101379.38;5054496;28;20071;-78
2023/03/28 09:56:58;;;;;;;0.65;0.20;;;;;;;5.03;38.74;101405.34;5054484;28;20090;-78
2023/03/28 09:59:44;;;;;;;0.82;0.22;;;;;;;4.96;40.98;101382.44;5065757;28;20028;-77
2023/03/28 10:02:29;;;;;;;0.47;0.20;;;;;;;5.47;43.32;101379.56;5053193;28;20033;-77
2023/03/28 10:04:58;;;;;;;0.57;0.20;;;;;;;5.70;42.29;101390.69;5047732;28;20070;-77
2023/03/28 10:07:43;;;;;;;0.32;0.20;;;;;;;5.41;41.08;101396.84;5052201;28;20103;-77
2023/03/28 10:10:35;;;;;;;2.50;0.50;;;;;;;4.96;40.87;101392.91;5075011;28;20409;-78
2023/03/28 10:13:10;;;;;;;1.67;0.20;;;;;;;4.93;41.56;101397.16;5035408;28;20041;-77
2023/03/28 10:15:45;;;;;;;0.70;0.35;;;;;;;5.16;40.70;101397.84;5066444;28;20032;-78
2023/03/28 10:18:41;;;;;;;0.80;0.15;;;;;;;5.42;39.56;101390.75;5067054;28;20457;-78
2023/03/28 10:21:20;;;;;;;0.68;0.17;;;;;;;5.38;39.02;101394.13;5056784;28;20031;-77
2023/03/28 10:24:01;;;;;;;1.10;0.20;;;;;;;5.41;39.86;101396.84;5051514;28;20112;-77
2023/03/28 10:26:27;;;;;;;0.85;0.30;;;;;;;5.27;41.45;101393.84;5067548;28;20036;-77
2023/03/28 10:28:59;;;;;;;4.22;0.30;;;;;;;5.17;41.44;101403.13;5060409;28;20030;-77
2023/03/28 10:31:30;;;;;;;1.30;0.30;;;;;;;5.00;40.77;101414.81;5051601;28;20021;-77
2023/03/28 10:34:24;;;;;;;0.80;0.32;;;;;;;5.49;41.65;101395.31;5049698;28;20033;-77
2023/03/28 10:36:55;;;;;;;1.92;0.10;;;;;;;5.60;43.04;101399.13;5041100;28;20036;-77
2023/03/28 10:39:31;;;;;;;0.82;0.17;;;;;;;5.57;41.24;101404.28;5055650;28;20501;-78
2023/03/28 10:42:45;;;;;;;1.02;0.40;;;;;;;5.70;46.14;101406.38;5022983;28;20052;-77
2023/03/28 10:45:36;;;;;;;1.27;0.35;;;;;;;5.88;46.42;101389.41;5027952;28;20098;-77
2023/03/28 10:48:08;;;;;;;1.10;0.60;;;;;;;5.85;47.14;101394.56;5038506;28;20178;-77
2023/03/28 10:50:39;;;;;;;3.40;0.40;;;;;;;5.63;47.22;101414.94;5056407;28;20036;-77
2023/03/28 10:53:21;;;;;;;2.10;0.40;;;;;;;5.33;47.84;101412.31;5053356;28;20032;-77
2023/03/28 10:56:18;;;;;;;0.60;0.30;;;;;;;5.74;48.63;101403.84;5067699;28;20115;-76
2023/03/28 10:58:59;;;;;;;1.00;0.40;;;;;;;5.94;47.33;101405.31;5034478;28;20029;-77
2023/03/28 11:02:15;;;;;;;2.28;0.38;;;;;;;6.46;47.59;101398.78;5069772;28;20041;-77
2023/03/28 11:05:08;;;;;;;0.73;0.22;;;;;;;6.59;45.14;101382.50;5071478;28;20083;-78
2023/03/28 11:07:59;;;;;;;;;;;;;;;7.08;44.82;101397.59;5060616;28;20096;-77
2023/03/28 11:11:14;;;;;;;3.42;0.43;;;;;;;6.82;44.31;101410.13;5076341;28;19912;-78
2023/03/28 11:13:57;;;;;;;1.52;0.35;;;;;;;6.40;44.46;101408.25;5055554;28;20040;-77
2023/03/28 11:16:54;;;;;;;0.55;0.20;;;;;;;6.15;45.37;101405.00;5073448;28;20029;-77
2023/03/28 11:20:34;;;;;;;2.53;0.52;;;;;;;6.51;43.91;101405.03;5051566;28;20032;-77
2023/03/28 11:23:27;;;;;;;1.52;0.40;;;;;;;6.78;42.61;101403.91;4995293;28;20095;-77
2023/03/28 11:26:23;;;;;;;1.15;0.80;;;;;;;6.93;42.92;101399.03;5071570;28;20063;-78
2023/03/28 11:29:56;;;;;;;0.77;0.25;;;;;;;7.21;43.07;101394.41;5072253;28;20090;-77
2023/03/28 11:32:33;;;;;;;2.00;0.60;;;;;;;6.85;43.16;101400.59;5045034;28;20445;-77
2023/03/28 11:35:01;;;;;;;1.30;0.30;;;;;;;6.57;43.52;101413.03;5052328;28;20041;-78
2023/03/28 11:37:33;;;;;;;2.83;0.30;;;;;;;6.46;43.47;101408.41;5054612;28;20570;-78
2023/03/28 11:40:21;;;;;;;1.13;0.43;;;;;;;6.73;43.68;101392.41;5071383;28;20029;-77
2023/03/28 11:43:00;;;;;;;1.98;0.40;;;;;;;7.27;40.67;101410.25;5058013;28;20082;-77
2023/03/28 11:45:46;;;;;;;1.85;0.43;;;;;;;7.22;42.53;101388.28;5053752;28;20041;-78
2023/03/28 11:48:46;;;;;;;1.15;0.38;;;;;;;7.09;40.84;101404.63;5057084;28;20070;-77
2023/03/28 11:51:24;;;;;;;2.85;0.80;;;;;;;7.33;41.41;101378.00;4995952;28;20041;-77
2023/03/28 11:54:12;;;;;;;1.90;0.70;;;;;;;7.54;41.21;101396.81;5056505;28;20107;-78
2023/03/28 11:56:47;;;;;;;1.65;0.50;;;;;;;7.77;39.85;101386.75;5060792;28;20036;-77
2023/03/28 11:59:39;;;;;;;2.53;0.52;;;;;;;7.66;40.19;101410.19;5070171;28;20095;-78
2023/03/28 12:02:23;;;;;;;0.63;0.45;;;;;;;7.44;38.83;101397.47;5052102;28;20029;-78
2023/03/28 12:05:00;;;;;;;2.05;0.60;;;;;;;7.80;38.77;101380.66;5067596;28;20502;-77
2023/03/28 12:07:42;;;;;;;3.67;0.70;;;;;;;7.77;39.99;101391.13;5073653;28;20072;-77
2023/03/28 12:10:37;;;;;;;1.08;0.20;;;;;;;7.50;39.01;101376.59;5076296;28;20066;-78
2023/03/28 12:13:41;;;;;;;1.35;0.50;;;;;;;7.42;39.59;101379.06;5056087;28;20155;-78